Kezdőlap
METAR-TAF:

METAR-TAF

Repülőterek :

Baraboo Wisconsin Dells Airport

Baraboo-Wisconsin Dells, Wisconsin, Amerikai Egyesült Államok

földrajzi szélesség: 43-31-19N, földrajzi hosszúság: 089-46-15W, magasság: 298 m

Jelenlegi meteorológiai megfigyelések

A jelentés 10 perccel ezelõtt készült, 16:35 UTC
Szélcsend
Hőmérséklet -13°C
Páratartalom 78%
Légköri nyomás 1020 hPa
Látótávolság: 16.1 km
Derült ég

METAR: KDLL 151635Z AUTO 00000KT 10SM CLR M13/M16 A3011 RMK AO2 T11261162

Idő: 10:45 (16:45 UTC)


TAF: hiányzik

Meteorológiai megfigyelések és előrejelzések több, mint 4000 repülőtéren (METAR és TAF jelentéseket).

A térképen piros és sárga pontok jelzik az elérhető meteorológiai állomásokat.

Mozgassa az egeret a pont fölött, hogy megjelenjen az állomás neve.

Azután kattintson az időjárási megfigyelések és előrejelzések megtekintéséhez.

A térkép megváltoztatása: kattintson a fekete keresztel jelölt zöld gombra ráközelítéshez, a vonallal jelölt zöld gombra távolításhoz, vagy a zöld nyilakra a szomszédos térképek eléréséhez.


METAR-TAF: